sensor_id;sensor_type;location;lat;lon;timestamp;pressure;altitude;pressure_sealevel;temperature;humidity
78485;BME280;67773;50.806;8.776;2024-03-06T00:00:21;99791.28;;;5.95;100.00
78485;BME280;67773;50.806;8.776;2024-03-06T00:02:47;99790.56;;;5.89;100.00
78485;BME280;67773;50.806;8.776;2024-03-06T00:05:13;99793.34;;;5.84;100.00
78485;BME280;67773;50.806;8.776;2024-03-06T00:07:38;99788.13;;;5.81;100.00
78485;BME280;67773;50.806;8.776;2024-03-06T00:10:04;99797.91;;;5.77;100.00
78485;BME280;67773;50.806;8.776;2024-03-06T00:12:30;99800.56;;;5.77;100.00
78485;BME280;67773;50.806;8.776;2024-03-06T00:14:55;99795.19;;;5.80;100.00
78485;BME280;67773;50.806;8.776;2024-03-06T00:17:21;99801.25;;;5.84;100.00
78485;BME280;67773;50.806;8.776;2024-03-06T00:19:46;99812.72;;;5.82;100.00
78485;BME280;67773;50.806;8.776;2024-03-06T00:22:11;99815.28;;;5.83;100.00
78485;BME280;67773;50.806;8.776;2024-03-06T00:24:37;99816.13;;;5.85;100.00
78485;BME280;67773;50.806;8.776;2024-03-06T00:27:02;99806.53;;;5.83;100.00
78485;BME280;67773;50.806;8.776;2024-03-06T00:29:30;99823.03;;;5.89;100.00
78485;BME280;67773;50.806;8.776;2024-03-06T00:31:56;99819.47;;;5.92;100.00
78485;BME280;67773;50.806;8.776;2024-03-06T00:34:21;99824.84;;;5.87;100.00
78485;BME280;67773;50.806;8.776;2024-03-06T00:36:47;99823.19;;;5.83;100.00
78485;BME280;67773;50.806;8.776;2024-03-06T00:39:12;99818.81;;;5.84;100.00
78485;BME280;67773;50.806;8.776;2024-03-06T00:41:40;99825.06;;;5.79;100.00
78485;BME280;67773;50.806;8.776;2024-03-06T00:44:07;99821.63;;;5.77;100.00
78485;BME280;67773;50.806;8.776;2024-03-06T00:46:32;99819.84;;;5.78;100.00
78485;BME280;67773;50.806;8.776;2024-03-06T00:48:58;99819.69;;;5.83;100.00
78485;BME280;67773;50.806;8.776;2024-03-06T00:51:23;99831.25;;;5.78;100.00
78485;BME280;67773;50.806;8.776;2024-03-06T00:53:48;99817.97;;;5.82;100.00
78485;BME280;67773;50.806;8.776;2024-03-06T00:56:14;99818.56;;;5.93;100.00
78485;BME280;67773;50.806;8.776;2024-03-06T00:58:39;99823.69;;;5.97;100.00
78485;BME280;67773;50.806;8.776;2024-03-06T01:01:04;99824.84;;;5.87;100.00
78485;BME280;67773;50.806;8.776;2024-03-06T01:03:30;99830.28;;;5.81;100.00
78485;BME280;67773;50.806;8.776;2024-03-06T01:05:55;99827.75;;;5.78;100.00
78485;BME280;67773;50.806;8.776;2024-03-06T01:08:23;99826.84;;;5.79;100.00
78485;BME280;67773;50.806;8.776;2024-03-06T01:10:50;99828.72;;;5.75;100.00
78485;BME280;67773;50.806;8.776;2024-03-06T01:13:16;99831.38;;;5.74;100.00
78485;BME280;67773;50.806;8.776;2024-03-06T01:15:42;99831.41;;;5.72;100.00
78485;BME280;67773;50.806;8.776;2024-03-06T01:18:07;99826.28;;;5.68;100.00
78485;BME280;67773;50.806;8.776;2024-03-06T01:20:34;99837.53;;;5.73;100.00
78485;BME280;67773;50.806;8.776;2024-03-06T01:22:59;99835.81;;;5.72;100.00
78485;BME280;67773;50.806;8.776;2024-03-06T01:25:24;99844.63;;;5.71;100.00
78485;BME280;67773;50.806;8.776;2024-03-06T01:27:50;99848.91;;;5.75;100.00
78485;BME280;67773;50.806;8.776;2024-03-06T01:30:15;99853.34;;;5.73;100.00
78485;BME280;67773;50.806;8.776;2024-03-06T01:32:41;99854.28;;;5.70;100.00
78485;BME280;67773;50.806;8.776;2024-03-06T01:35:06;99849.94;;;5.69;100.00
78485;BME280;67773;50.806;8.776;2024-03-06T01:37:32;99847.09;;;5.77;100.00
78485;BME280;67773;50.806;8.776;2024-03-06T01:39:58;99864.63;;;5.78;100.00
78485;BME280;67773;50.806;8.776;2024-03-06T01:42:23;99858.59;;;5.73;100.00
78485;BME280;67773;50.806;8.776;2024-03-06T01:44:49;99846.53;;;5.66;100.00
78485;BME280;67773;50.806;8.776;2024-03-06T01:47:14;99851.16;;;5.58;100.00
78485;BME280;67773;50.806;8.776;2024-03-06T01:49:40;99853.78;;;5.58;100.00
78485;BME280;67773;50.806;8.776;2024-03-06T01:52:06;99854.66;;;5.58;100.00
78485;BME280;67773;50.806;8.776;2024-03-06T01:54:31;99860.06;;;5.52;100.00
78485;BME280;67773;50.806;8.776;2024-03-06T01:56:57;99860.13;;;5.50;100.00
78485;BME280;67773;50.806;8.776;2024-03-06T01:59:25;99860.22;;;5.47;100.00
78485;BME280;67773;50.806;8.776;2024-03-06T02:01:53;99855.84;;;5.46;100.00
78485;BME280;67773;50.806;8.776;2024-03-06T02:04:18;99858.53;;;5.45;100.00
78485;BME280;67773;50.806;8.776;2024-03-06T02:06:44;99866.53;;;5.42;100.00
78485;BME280;67773;50.806;8.776;2024-03-06T02:09:10;99856.91;;;5.39;100.00
78485;BME280;67773;50.806;8.776;2024-03-06T02:11:37;99858.38;;;5.49;100.00
78485;BME280;67773;50.806;8.776;2024-03-06T02:14:02;99861.88;;;5.50;100.00
78485;BME280;67773;50.806;8.776;2024-03-06T02:16:28;99864.56;;;5.48;100.00
78485;BME280;67773;50.806;8.776;2024-03-06T02:18:54;99861.97;;;5.47;100.00
78485;BME280;67773;50.806;8.776;2024-03-06T02:21:21;99866.38;;;5.46;100.00
78485;BME280;67773;50.806;8.776;2024-03-06T02:23:47;99869.06;;;5.45;100.00
78485;BME280;67773;50.806;8.776;2024-03-06T02:26:12;99873.38;;;5.47;100.00
78485;BME280;67773;50.806;8.776;2024-03-06T02:28:38;99867.09;;;5.51;100.00
78485;BME280;67773;50.806;8.776;2024-03-06T02:31:03;99868.00;;;5.50;100.00
78485;BME280;67773;50.806;8.776;2024-03-06T02:33:32;99864.56;;;5.48;100.00
78485;BME280;67773;50.806;8.776;2024-03-06T02:35:59;99867.16;;;5.50;100.00
78485;BME280;67773;50.806;8.776;2024-03-06T02:38:24;99873.38;;;5.47;100.00
78485;BME280;67773;50.806;8.776;2024-03-06T02:40:50;99867.25;;;5.47;100.00
78485;BME280;67773;50.806;8.776;2024-03-06T02:43:15;99866.47;;;5.43;100.00
78485;BME280;67773;50.806;8.776;2024-03-06T02:45:41;99870.13;;;5.38;100.00
78485;BME280;67773;50.806;8.776;2024-03-06T02:48:06;99866.81;;;5.30;100.00
78485;BME280;67773;50.806;8.776;2024-03-06T02:50:32;99866.94;;;5.25;100.00
78485;BME280;67773;50.806;8.776;2024-03-06T02:52:57;99872.22;;;5.25;100.00
78485;BME280;67773;50.806;8.776;2024-03-06T02:55:23;99871.22;;;5.29;100.00
78485;BME280;67773;50.806;8.776;2024-03-06T02:57:49;99863.25;;;5.32;100.00
78485;BME280;67773;50.806;8.776;2024-03-06T03:00:15;99866.78;;;5.31;100.00
78485;BME280;67773;50.806;8.776;2024-03-06T03:02:41;99867.84;;;5.24;100.00
78485;BME280;67773;50.806;8.776;2024-03-06T03:05:07;99862.59;;;5.24;100.00
78485;BME280;67773;50.806;8.776;2024-03-06T03:07:33;99867.03;;;5.22;100.00
78485;BME280;67773;50.806;8.776;2024-03-06T03:09:58;99873.34;;;5.15;100.00
78485;BME280;67773;50.806;8.776;2024-03-06T03:12:23;99874.41;;;5.08;100.00
78485;BME280;67773;50.806;8.776;2024-03-06T03:14:49;99873.50;;;5.09;100.00
78485;BME280;67773;50.806;8.776;2024-03-06T03:17:15;99883.19;;;5.07;100.00
78485;BME280;67773;50.806;8.776;2024-03-06T03:19:40;99890.22;;;5.06;100.00
78485;BME280;67773;50.806;8.776;2024-03-06T03:22:06;99888.56;;;5.04;100.00
78485;BME280;67773;50.806;8.776;2024-03-06T03:24:31;99893.69;;;5.08;100.00
78485;BME280;67773;50.806;8.776;2024-03-06T03:26:56;99891.81;;;5.13;100.00
78485;BME280;67773;50.806;8.776;2024-03-06T03:29:22;99893.44;;;5.17;100.00
78485;BME280;67773;50.806;8.776;2024-03-06T03:31:48;99896.09;;;5.17;100.00
78485;BME280;67773;50.806;8.776;2024-03-06T03:34:14;99894.50;;;5.10;100.00
78485;BME280;67773;50.806;8.776;2024-03-06T03:36:40;99902.34;;;5.13;100.00
78485;BME280;67773;50.806;8.776;2024-03-06T03:39:06;99899.75;;;5.12;100.00
78485;BME280;67773;50.806;8.776;2024-03-06T03:41:41;99903.88;;;5.20;100.00
78485;BME280;67773;50.806;8.776;2024-03-06T03:44:07;99907.44;;;5.19;100.00
78485;BME280;67773;50.806;8.776;2024-03-06T03:46:32;99903.97;;;5.17;100.00
78485;BME280;67773;50.806;8.776;2024-03-06T03:48:58;99914.59;;;5.14;100.00
78485;BME280;67773;50.806;8.776;2024-03-06T03:51:23;99916.44;;;5.11;100.00
78485;BME280;67773;50.806;8.776;2024-03-06T03:53:48;99906.84;;;5.08;100.00
78485;BME280;67773;50.806;8.776;2024-03-06T03:56:16;99918.41;;;5.03;100.00
78485;BME280;67773;50.806;8.776;2024-03-06T03:58:41;99923.72;;;5.00;100.00
78485;BME280;67773;50.806;8.776;2024-03-06T04:01:10;99920.19;;;5.01;100.00
78485;BME280;67773;50.806;8.776;2024-03-06T04:03:36;99922.84;;;4.99;100.00
78485;BME280;67773;50.806;8.776;2024-03-06T04:06:01;99930.66;;;5.04;100.00
78485;BME280;67773;50.806;8.776;2024-03-06T04:08:27;99929.75;;;5.05;100.00
78485;BME280;67773;50.806;8.776;2024-03-06T04:10:52;99924.53;;;5.03;100.00
78485;BME280;67773;50.806;8.776;2024-03-06T04:13:18;99926.31;;;5.01;100.00
78485;BME280;67773;50.806;8.776;2024-03-06T04:15:45;99933.50;;;4.95;100.00
78485;BME280;67773;50.806;8.776;2024-03-06T04:18:11;99933.56;;;4.91;100.00
78485;BME280;67773;50.806;8.776;2024-03-06T04:20:36;99930.09;;;4.89;100.00
78485;BME280;67773;50.806;8.776;2024-03-06T04:23:01;99935.19;;;4.97;100.00
78485;BME280;67773;50.806;8.776;2024-03-06T04:25:27;99931.50;;;5.04;100.00
78485;BME280;67773;50.806;8.776;2024-03-06T04:27:52;99931.31;;;5.12;100.00
78485;BME280;67773;50.806;8.776;2024-03-06T04:30:18;99935.72;;;5.11;100.00
78485;BME280;67773;50.806;8.776;2024-03-06T04:32:43;99935.88;;;5.05;100.00
78485;BME280;67773;50.806;8.776;2024-03-06T04:35:09;99937.63;;;5.05;100.00
78485;BME280;67773;50.806;8.776;2024-03-06T04:37:35;99937.75;;;4.99;100.00
78485;BME280;67773;50.806;8.776;2024-03-06T04:40:01;99944.84;;;4.97;100.00
78485;BME280;67773;50.806;8.776;2024-03-06T04:42:28;99944.91;;;4.93;100.00
78485;BME280;67773;50.806;8.776;2024-03-06T04:44:53;99943.31;;;4.86;100.00
78485;BME280;67773;50.806;8.776;2024-03-06T04:47:18;99946.28;;;4.73;100.00
78485;BME280;67773;50.806;8.776;2024-03-06T04:49:44;99947.28;;;4.67;100.00
78485;BME280;67773;50.806;8.776;2024-03-06T04:52:09;99946.19;;;4.76;100.00
78485;BME280;67773;50.806;8.776;2024-03-06T04:54:35;99950.75;;;4.69;100.00
78485;BME280;67773;50.806;8.776;2024-03-06T04:57:00;99953.38;;;4.68;100.00
78485;BME280;67773;50.806;8.776;2024-03-06T04:59:25;99950.97;;;4.60;100.00
78485;BME280;67773;50.806;8.776;2024-03-06T05:01:52;99959.00;;;4.52;100.00
78485;BME280;67773;50.806;8.776;2024-03-06T05:04:17;99960.78;;;4.52;100.00
78485;BME280;67773;50.806;8.776;2024-03-06T05:06:42;99959.00;;;4.52;100.00
78485;BME280;67773;50.806;8.776;2024-03-06T05:09:08;99964.97;;;4.60;100.00
78485;BME280;67773;50.806;8.776;2024-03-06T05:11:37;99969.59;;;4.48;100.00
78485;BME280;67773;50.806;8.776;2024-03-06T05:14:03;99963.66;;;4.40;100.00
78485;BME280;67773;50.806;8.776;2024-03-06T05:16:29;99968.03;;;4.41;100.00
78485;BME280;67773;50.806;8.776;2024-03-06T05:18:54;99970.75;;;4.34;100.00
78485;BME280;67773;50.806;8.776;2024-03-06T05:21:20;99972.44;;;4.37;100.00
78485;BME280;67773;50.806;8.776;2024-03-06T05:23:47;99982.97;;;4.39;100.00
78485;BME280;67773;50.806;8.776;2024-03-06T05:26:13;99983.91;;;4.34;100.00
78485;BME280;67773;50.806;8.776;2024-03-06T05:28:38;99983.94;;;4.33;100.00
78485;BME280;67773;50.806;8.776;2024-03-06T05:31:15;99993.63;;;4.31;100.00
78485;BME280;67773;50.806;8.776;2024-03-06T05:33:42;99988.34;;;4.32;100.00
78485;BME280;67773;50.806;8.776;2024-03-06T05:36:08;99996.91;;;4.42;100.00
78485;BME280;67773;50.806;8.776;2024-03-06T05:38:33;99997.88;;;4.38;100.00
78485;BME280;67773;50.806;8.776;2024-03-06T05:40:58;100002.19;;;4.41;100.00
78485;BME280;67773;50.806;8.776;2024-03-06T05:43:24;100012.69;;;4.41;100.00
78485;BME280;67773;50.806;8.776;2024-03-06T05:45:49;100008.38;;;4.38;100.00
78485;BME280;67773;50.806;8.776;2024-03-06T05:48:14;100017.13;;;4.37;100.00
78485;BME280;67773;50.806;8.776;2024-03-06T05:50:40;100009.34;;;4.32;100.00
78485;BME280;67773;50.806;8.776;2024-03-06T05:53:05;100004.28;;;4.23;100.00
78485;BME280;67773;50.806;8.776;2024-03-06T05:55:31;100016.59;;;4.21;100.00
78485;BME280;67773;50.806;8.776;2024-03-06T05:57:56;100014.13;;;4.12;100.00
78485;BME280;67773;50.806;8.776;2024-03-06T06:00:21;100012.41;;;4.11;100.00
78485;BME280;67773;50.806;8.776;2024-03-06T06:02:47;100010.59;;;4.13;100.00
78485;BME280;67773;50.806;8.776;2024-03-06T06:05:13;100017.69;;;4.10;100.00
78485;BME280;67773;50.806;8.776;2024-03-06T06:07:38;100022.00;;;4.12;100.00
78485;BME280;67773;50.806;8.776;2024-03-06T06:10:04;100025.47;;;4.14;100.00
78485;BME280;67773;50.806;8.776;2024-03-06T06:12:33;100018.53;;;4.12;100.00
78485;BME280;67773;50.806;8.776;2024-03-06T06:14:58;100034.25;;;4.13;100.00
78485;BME280;67773;50.806;8.776;2024-03-06T06:17:24;100041.22;;;4.14;100.00
78485;BME280;67773;50.806;8.776;2024-03-06T06:19:49;100032.44;;;4.15;100.00
78485;BME280;67773;50.806;8.776;2024-03-06T06:22:15;100041.97;;;4.22;100.00
78485;BME280;67773;50.806;8.776;2024-03-06T06:24:40;100050.66;;;4.24;100.00
78485;BME280;67773;50.806;8.776;2024-03-06T06:27:06;100053.38;;;4.21;100.00
78485;BME280;67773;50.806;8.776;2024-03-06T06:29:31;100054.13;;;4.28;100.00
78485;BME280;67773;50.806;8.776;2024-03-06T06:31:57;100060.19;;;4.31;100.00
78485;BME280;67773;50.806;8.776;2024-03-06T06:34:22;100064.44;;;4.39;100.00
78485;BME280;67773;50.806;8.776;2024-03-06T06:36:48;100074.69;;;4.51;100.00
78485;BME280;67773;50.806;8.776;2024-03-06T06:39:13;100081.75;;;4.47;100.00
78485;BME280;67773;50.806;8.776;2024-03-06T06:41:39;100086.03;;;4.53;100.00
78485;BME280;67773;50.806;8.776;2024-03-06T06:44:04;100090.19;;;4.64;100.00
78485;BME280;67773;50.806;8.776;2024-03-06T06:46:29;100095.38;;;4.69;100.00
78485;BME280;67773;50.806;8.776;2024-03-06T06:48:54;100098.88;;;4.68;100.00
78485;BME280;67773;50.806;8.776;2024-03-06T06:51:20;100103.06;;;4.77;100.00
78485;BME280;67773;50.806;8.776;2024-03-06T06:53:47;100104.63;;;4.87;100.00
78485;BME280;67773;50.806;8.776;2024-03-06T06:56:12;100107.22;;;4.88;100.00
78485;BME280;67773;50.806;8.776;2024-03-06T06:58:37;100111.78;;;4.80;100.00
78485;BME280;67773;50.806;8.776;2024-03-06T07:01:03;100107.41;;;4.81;100.00
78485;BME280;67773;50.806;8.776;2024-03-06T07:03:29;100104.91;;;4.73;100.00
78485;BME280;67773;50.806;8.776;2024-03-06T07:05:56;100114.59;;;4.71;100.00
78485;BME280;67773;50.806;8.776;2024-03-06T07:08:22;100117.06;;;4.80;100.00
78485;BME280;67773;50.806;8.776;2024-03-06T07:10:48;100122.34;;;4.77;100.00
78485;BME280;67773;50.806;8.776;2024-03-06T07:13:13;100124.16;;;4.75;100.00
78485;BME280;67773;50.806;8.776;2024-03-06T07:15:38;100127.56;;;4.80;100.00
78485;BME280;67773;50.806;8.776;2024-03-06T07:18:04;100124.84;;;4.85;100.00
78485;BME280;67773;50.806;8.776;2024-03-06T07:20:30;100122.78;;;4.99;100.00
78485;BME280;67773;50.806;8.776;2024-03-06T07:22:57;100124.31;;;5.09;100.00
78485;BME280;67773;50.806;8.776;2024-03-06T07:25:22;100124.41;;;5.05;100.00
78485;BME280;67773;50.806;8.776;2024-03-06T07:27:48;100122.97;;;5.32;100.00
78485;BME280;67773;50.806;8.776;2024-03-06T07:30:13;100125.09;;;5.53;100.00
78485;BME280;67773;50.806;8.776;2024-03-06T07:32:39;100130.25;;;5.58;100.00
78485;BME280;67773;50.806;8.776;2024-03-06T07:35:06;100118.69;;;5.65;100.00
78485;BME280;67773;50.806;8.776;2024-03-06T07:37:31;100128.94;;;5.77;100.00
78485;BME280;67773;50.806;8.776;2024-03-06T07:39:56;100128.44;;;5.98;100.00
78485;BME280;67773;50.806;8.776;2024-03-06T07:42:23;100127.84;;;5.86;100.00
78485;BME280;67773;50.806;8.776;2024-03-06T07:44:49;100128.97;;;5.75;100.00
78485;BME280;67773;50.806;8.776;2024-03-06T07:47:15;100138.25;;;5.92;100.00
78485;BME280;67773;50.806;8.776;2024-03-06T07:49:40;100137.44;;;5.88;100.00
78485;BME280;67773;50.806;8.776;2024-03-06T07:52:05;100141.19;;;6.15;100.00
78485;BME280;67773;50.806;8.776;2024-03-06T07:54:31;100144.66;;;6.17;100.00
78485;BME280;67773;50.806;8.776;2024-03-06T07:56:58;100151.97;;;6.06;100.00
78485;BME280;67773;50.806;8.776;2024-03-06T07:59:23;100157.88;;;6.16;100.00
78485;BME280;67773;50.806;8.776;2024-03-06T08:01:48;100157.75;;;6.20;100.00
78485;BME280;67773;50.806;8.776;2024-03-06T08:04:14;100163.41;;;6.03;100.00
78485;BME280;67773;50.806;8.776;2024-03-06T08:06:39;100158.56;;;6.22;100.00
78485;BME280;67773;50.806;8.776;2024-03-06T08:09:05;100162.75;;;6.31;100.00
78485;BME280;67773;50.806;8.776;2024-03-06T08:11:31;100163.22;;;6.45;100.00
78485;BME280;67773;50.806;8.776;2024-03-06T08:13:58;100163.22;;;6.45;100.00
78485;BME280;67773;50.806;8.776;2024-03-06T08:16:26;100161.63;;;6.40;100.00
78485;BME280;67773;50.806;8.776;2024-03-06T08:18:52;100157.59;;;6.25;100.00
78485;BME280;67773;50.806;8.776;2024-03-06T08:21:17;100163.88;;;6.21;100.00
78485;BME280;67773;50.806;8.776;2024-03-06T08:23:42;100173.91;;;6.06;100.00
78485;BME280;67773;50.806;8.776;2024-03-06T08:26:08;100163.19;;;6.13;100.00
78485;BME280;67773;50.806;8.776;2024-03-06T08:28:33;100171.75;;;6.22;100.00
78485;BME280;67773;50.806;8.776;2024-03-06T08:31:00;100170.56;;;6.34;100.00
78485;BME280;67773;50.806;8.776;2024-03-06T08:33:25;100166.72;;;6.47;100.00
78485;BME280;67773;50.806;8.776;2024-03-06T08:35:51;100169.84;;;6.61;100.00
78485;BME280;67773;50.806;8.776;2024-03-06T08:38:16;100175.94;;;6.63;100.00
78485;BME280;67773;50.806;8.776;2024-03-06T08:40:42;100182.59;;;6.77;100.00
78485;BME280;67773;50.806;8.776;2024-03-06T08:43:11;100174.06;;;6.69;100.00
78485;BME280;67773;50.806;8.776;2024-03-06T08:45:38;100181.94;;;6.70;100.00
78485;BME280;67773;50.806;8.776;2024-03-06T08:48:03;100178.81;;;6.87;100.00
78485;BME280;67773;50.806;8.776;2024-03-06T08:50:28;100178.19;;;7.10;100.00
78485;BME280;67773;50.806;8.776;2024-03-06T08:52:54;100188.88;;;7.35;100.00
78485;BME280;67773;50.806;8.776;2024-03-06T08:55:19;100184.63;;;7.59;100.00
78485;BME280;67773;50.806;8.776;2024-03-06T08:57:44;100188.59;;;7.73;100.00
78485;BME280;67773;50.806;8.776;2024-03-06T09:00:10;100183.38;;;7.72;100.00
78485;BME280;67773;50.806;8.776;2024-03-06T09:02:36;100187.41;;;7.84;100.00
78485;BME280;67773;50.806;8.776;2024-03-06T09:05:05;100192.75;;;7.80;100.00
78485;BME280;67773;50.806;8.776;2024-03-06T09:07:30;100192.91;;;8.04;100.00
78485;BME280;67773;50.806;8.776;2024-03-06T09:09:55;100193.72;;;8.06;100.00
78485;BME280;67773;50.806;8.776;2024-03-06T09:12:22;100191.06;;;8.34;100.00
78485;BME280;67773;50.806;8.776;2024-03-06T09:14:47;100186.00;;;8.53;100.00
78485;BME280;67773;50.806;8.776;2024-03-06T09:17:12;100180.72;;;8.53;100.00
78485;BME280;67773;50.806;8.776;2024-03-06T09:19:41;100199.53;;;8.70;100.00
78485;BME280;67773;50.806;8.776;2024-03-06T09:22:07;100199.31;;;8.76;100.00
78485;BME280;67773;50.806;8.776;2024-03-06T09:24:33;100194.84;;;8.25;100.00
78485;BME280;67773;50.806;8.776;2024-03-06T09:27:00;100194.72;;;8.02;100.00
78485;BME280;67773;50.806;8.776;2024-03-06T09:29:25;100205.88;;;8.11;100.00
78485;BME280;67773;50.806;8.776;2024-03-06T09:31:51;100204.38;;;8.57;100.00
78485;BME280;67773;50.806;8.776;2024-03-06T09:34:16;100190.44;;;9.02;100.00
78485;BME280;67773;50.806;8.776;2024-03-06T09:36:46;100199.97;;;9.54;100.00
78485;BME280;67773;50.806;8.776;2024-03-06T09:39:13;100193.59;;;10.04;100.00
78485;BME280;67773;50.806;8.776;2024-03-06T09:41:41;100197.41;;;10.19;100.00
78485;BME280;67773;50.806;8.776;2024-03-06T09:44:07;100187.47;;;10.46;100.00
78485;BME280;67773;50.806;8.776;2024-03-06T09:46:35;100195.78;;;10.58;100.00
78485;BME280;67773;50.806;8.776;2024-03-06T09:49:08;100199.66;;;10.29;100.00
78485;BME280;67773;50.806;8.776;2024-03-06T09:51:38;100201.66;;;12.37;100.00
78485;BME280;67773;50.806;8.776;2024-03-06T10:00:10;100200.91;;;12.87;100.00
78485;BME280;67773;50.806;8.776;2024-03-06T10:02:52;100201.47;;;11.87;100.00
78485;BME280;67773;50.806;8.776;2024-03-06T10:05:23;100203.38;;;11.65;100.00
78485;BME280;67773;50.806;8.776;2024-03-06T10:07:52;100206.63;;;11.71;100.00
78485;BME280;67773;50.806;8.776;2024-03-06T10:10:21;100204.91;;;11.70;100.00
78485;BME280;67773;50.806;8.776;2024-03-06T10:12:48;100211.31;;;11.08;100.00
78485;BME280;67773;50.806;8.776;2024-03-06T10:15:14;100217.28;;;10.93;100.00
78485;BME280;67773;50.806;8.776;2024-03-06T10:17:40;100217.72;;;10.84;100.00
78485;BME280;67773;50.806;8.776;2024-03-06T10:20:19;100211.31;;;10.67;100.00
78485;BME280;67773;50.806;8.776;2024-03-06T10:22:50;100206.94;;;10.87;100.00
78485;BME280;67773;50.806;8.776;2024-03-06T10:25:21;100212.91;;;10.72;100.00
78485;BME280;67773;50.806;8.776;2024-03-06T10:28:09;100216.13;;;10.37;100.00
78485;BME280;67773;50.806;8.776;2024-03-06T10:30:37;100210.59;;;10.64;100.00
78485;BME280;67773;50.806;8.776;2024-03-06T10:33:05;100207.81;;;10.87;100.00
78485;BME280;67773;50.806;8.776;2024-03-06T10:35:35;100216.63;;;10.67;100.00
78485;BME280;67773;50.806;8.776;2024-03-06T10:38:03;100214.75;;;10.69;100.00
78485;BME280;67773;50.806;8.776;2024-03-06T10:40:37;100203.97;;;10.94;100.00
78485;BME280;67773;50.806;8.776;2024-03-06T10:43:04;100215.63;;;11.11;100.00
78485;BME280;67773;50.806;8.776;2024-03-06T10:45:49;100211.19;;;10.91;100.00
78485;BME280;67773;50.806;8.776;2024-03-06T10:48:15;100220.53;;;10.99;100.00
78485;BME280;67773;50.806;8.776;2024-03-06T10:50:43;100219.03;;;11.91;100.00
78485;BME280;67773;50.806;8.776;2024-03-06T10:53:11;100217.75;;;12.53;100.00
78485;BME280;67773;50.806;8.776;2024-03-06T10:55:37;100216.09;;;13.03;100.00
78485;BME280;67773;50.806;8.776;2024-03-06T10:58:06;100208.84;;;13.39;100.00
78485;BME280;67773;50.806;8.776;2024-03-06T11:00:45;100205.03;;;14.38;100.00
78485;BME280;67773;50.806;8.776;2024-03-06T11:03:14;100206.75;;;14.70;84.61
78485;BME280;67773;50.806;8.776;2024-03-06T11:05:44;100206.44;;;13.50;93.32
78485;BME280;67773;50.806;8.776;2024-03-06T11:08:13;100217.03;;;13.01;97.19
78485;BME280;67773;50.806;8.776;2024-03-06T11:10:40;100225.91;;;12.85;98.01
78485;BME280;67773;50.806;8.776;2024-03-06T11:15:37;100220.16;;;11.85;100.00
78485;BME280;67773;50.806;8.776;2024-03-06T11:23:31;100228.34;;;10.84;100.00
78485;BME280;67773;50.806;8.776;2024-03-06T11:26:00;100229.19;;;10.64;100.00
78485;BME280;67773;50.806;8.776;2024-03-06T11:28:32;100228.38;;;10.40;100.00
78485;BME280;67773;50.806;8.776;2024-03-06T11:31:02;100227.09;;;10.50;100.00
78485;BME280;67773;50.806;8.776;2024-03-06T11:33:34;100237.78;;;10.27;100.00
78485;BME280;67773;50.806;8.776;2024-03-06T11:36:24;100235.41;;;10.19;100.00
78485;BME280;67773;50.806;8.776;2024-03-06T11:41:23;100241.50;;;9.99;100.00
78485;BME280;67773;50.806;8.776;2024-03-06T11:43:49;100232.31;;;10.08;100.00
78485;BME280;67773;50.806;8.776;2024-03-06T11:46:16;100232.25;;;10.09;100.00
78485;BME280;67773;50.806;8.776;2024-03-06T11:48:43;100233.31;;;10.49;100.00
78485;BME280;67773;50.806;8.776;2024-03-06T11:51:09;100234.13;;;10.72;100.00
78485;BME280;67773;50.806;8.776;2024-03-06T11:53:34;100231.78;;;10.86;100.00
78485;BME280;67773;50.806;8.776;2024-03-06T11:56:07;100232.50;;;10.89;100.00
78485;BME280;67773;50.806;8.776;2024-03-06T11:58:33;100225.13;;;10.76;100.00
78485;BME280;67773;50.806;8.776;2024-03-06T12:00:58;100235.22;;;10.67;100.00
78485;BME280;67773;50.806;8.776;2024-03-06T12:03:25;100227.78;;;10.55;100.00
78485;BME280;67773;50.806;8.776;2024-03-06T12:05:51;100228.84;;;10.92;100.00
78485;BME280;67773;50.806;8.776;2024-03-06T12:08:17;100234.78;;;11.38;100.00
78485;BME280;67773;50.806;8.776;2024-03-06T12:10:42;100231.50;;;11.51;100.00
78485;BME280;67773;50.806;8.776;2024-03-06T12:13:08;100222.91;;;11.84;100.00
78485;BME280;67773;50.806;8.776;2024-03-06T12:15:33;100225.50;;;12.40;100.00
78485;BME280;67773;50.806;8.776;2024-03-06T12:18:00;100226.59;;;12.88;100.00
78485;BME280;67773;50.806;8.776;2024-03-06T12:20:25;100227.38;;;13.25;100.00
78485;BME280;67773;50.806;8.776;2024-03-06T12:22:52;100218.44;;;13.75;100.00
78485;BME280;67773;50.806;8.776;2024-03-06T12:25:19;100219.09;;;13.63;98.20
78485;BME280;67773;50.806;8.776;2024-03-06T12:27:49;100224.88;;;13.22;99.25
78485;BME280;67773;50.806;8.776;2024-03-06T12:30:22;100225.81;;;12.86;100.00
78485;BME280;67773;50.806;8.776;2024-03-06T12:33:01;100229.66;;;12.63;100.00
78485;BME280;67773;50.806;8.776;2024-03-06T12:35:30;100222.97;;;12.37;100.00
78485;BME280;67773;50.806;8.776;2024-03-06T12:37:55;100222.84;;;12.75;100.00
78485;BME280;67773;50.806;8.776;2024-03-06T12:40:21;100223.53;;;13.13;100.00
78485;BME280;67773;50.806;8.776;2024-03-06T12:42:46;100224.72;;;13.08;98.75
78485;BME280;67773;50.806;8.776;2024-03-06T12:45:12;100229.25;;;12.71;100.00
78485;BME280;67773;50.806;8.776;2024-03-06T12:47:42;100231.41;;;12.28;100.00
78485;BME280;67773;50.806;8.776;2024-03-06T12:50:08;100233.47;;;11.85;100.00
78485;BME280;67773;50.806;8.776;2024-03-06T12:52:34;100237.81;;;11.49;100.00
78485;BME280;67773;50.806;8.776;2024-03-06T12:55:00;100228.41;;;11.21;100.00
78485;BME280;67773;50.806;8.776;2024-03-06T12:57:25;100232.72;;;11.63;100.00
78485;BME280;67773;50.806;8.776;2024-03-06T12:59:51;100231.63;;;12.24;100.00
78485;BME280;67773;50.806;8.776;2024-03-06T13:02:16;100231.81;;;12.02;100.00
78485;BME280;67773;50.806;8.776;2024-03-06T13:04:41;100232.97;;;11.96;100.00